Time;durP1;ratioP1;P1;durP2;ratioP2;P2;SDS_P1;SDS_P2;PMS_P1;PMS_P2;Temp;Humidity;BMP_temperature;BMP_pressure;BME280_temperature;BME280_humidity;BME280_pressure;Samples;Min_cycle;Max_cycle;Signal;HPM_P1;HPM_P2
2022/08/28 00:01:11;;;;;;;6.22;1.50;;;17.60;99.90;;;;;;5038874;28;20037;-79
2022/08/28 00:03:37;;;;;;;4.82;1.80;;;17.60;99.90;;;;;;5038290;28;20419;-79
2022/08/28 00:06:03;;;;;;;5.47;1.90;;;17.60;99.90;;;;;;5038216;28;20103;-79
2022/08/28 00:08:31;;;;;;;9.23;1.88;;;17.60;99.90;;;;;;5055763;28;20049;-79
2022/08/28 00:10:57;;;;;;;7.22;1.60;;;17.60;99.90;;;;;;5021450;28;20151;-80
2022/08/28 00:13:24;;;;;;;5.20;1.48;;;17.60;99.90;;;;;;5021137;28;20049;-80
2022/08/28 00:15:54;;;;;;;5.55;1.75;;;17.60;99.90;;;;;;5035420;28;20124;-80
2022/08/28 00:18:20;;;;;;;5.25;1.52;;;17.50;99.90;;;;;;5037895;28;20487;-80
2022/08/28 00:20:47;;;;;;;7.53;1.88;;;17.50;99.90;;;;;;5053014;28;20050;-79
2022/08/28 00:23:13;;;;;;;3.70;1.60;;;17.50;99.90;;;;;;5038149;28;20057;-80
2022/08/28 00:25:39;;;;;;;5.53;1.48;;;17.50;99.90;;;;;;5029824;28;20107;-79
2022/08/28 00:28:07;;;;;;;4.45;1.63;;;17.50;99.90;;;;;;5019259;28;20045;-80
2022/08/28 00:30:37;;;;;;;5.78;1.77;;;17.50;99.90;;;;;;5038491;28;20049;-79
2022/08/28 00:33:33;;;;;;;4.45;1.83;;;17.50;99.90;;;;;;5028054;28;20061;-79
2022/08/28 00:36:01;;;;;;;3.22;1.33;;;17.40;99.90;;;;;;5026539;28;20458;-79
2022/08/28 00:38:27;;;;;;;6.47;1.65;;;17.40;99.90;;;;;;5022798;28;20044;-79
2022/08/28 00:40:59;;;;;;;4.80;1.50;;;17.40;99.90;;;;;;5037162;28;20068;-79
2022/08/28 00:43:37;;;;;;;5.75;1.83;;;17.40;99.90;;;;;;5037519;28;20055;-79
2022/08/28 00:46:06;;;;;;;3.22;1.35;;;17.40;99.90;;;;;;5014174;28;20056;-79
2022/08/28 00:48:32;;;;;;;5.15;1.77;;;17.40;99.90;;;;;;5013905;28;20576;-79
2022/08/28 00:53:43;;;;;;;5.65;1.70;;;17.40;99.90;;;;;;5037688;28;20069;-79
2022/08/28 00:56:12;;;;;;;5.68;2.20;;;17.40;99.90;;;;;;5037639;28;20041;-80
2022/08/28 00:58:40;;;;;;;4.93;1.45;;;17.40;99.90;;;;;;5038671;28;20132;-79
2022/08/28 01:01:05;;;;;;;5.70;1.60;;;17.30;99.90;;;;;;5021317;28;20049;-79
2022/08/28 01:03:31;;;;;;;4.00;1.67;;;17.30;99.90;;;;;;5003214;28;20063;-80
2022/08/28 01:05:57;;;;;;;5.32;1.50;;;17.30;99.90;;;;;;5051615;28;20501;-80
2022/08/28 01:08:23;;;;;;;6.05;1.77;;;17.20;99.90;;;;;;5037162;28;20051;-80
2022/08/28 01:10:54;;;;;;;6.55;1.83;;;17.30;99.90;;;;;;5037656;28;20080;-80
2022/08/28 01:13:23;;;;;;;4.65;1.50;;;17.30;99.90;;;;;;5020682;28;20414;-79
2022/08/28 01:15:50;;;;;;;6.45;1.50;;;17.30;99.90;;;;;;5021980;28;20045;-80
2022/08/28 01:18:17;;;;;;;4.88;1.50;;;17.20;99.90;;;;;;5018950;28;20375;-80
2022/08/28 01:21:08;;;;;;;4.35;1.42;;;17.20;99.90;;;;;;4988549;28;20053;-80
2022/08/28 01:24:03;;;;;;;3.85;1.48;;;17.30;99.90;;;;;;5526673;22;20492;-76
2022/08/28 01:26:29;;;;;;;5.35;1.63;;;17.20;99.90;;;;;;5037411;28;20389;-77
2022/08/28 01:28:57;;;;;;;3.63;1.50;;;17.20;99.90;;;;;;5037500;28;20063;-77
2022/08/28 01:31:24;;;;;;;9.15;1.60;;;17.20;99.90;;;;;;5036126;28;20059;-77
2022/08/28 01:33:50;;;;;;;6.90;1.15;;;17.20;99.90;;;;;;5008316;28;20055;-77
2022/08/28 01:36:17;;;;;;;6.07;1.55;;;17.20;99.90;;;;;;5030842;28;20059;-77
2022/08/28 01:38:46;;;;;;;5.00;1.30;;;17.20;99.90;;;;;;5031379;28;20068;-77
2022/08/28 01:41:12;;;;;;;5.90;1.58;;;17.20;99.90;;;;;;5047653;28;20044;-77
2022/08/28 01:43:39;;;;;;;6.43;1.90;;;17.10;99.90;;;;;;5039321;28;20045;-77
2022/08/28 01:46:06;;;;;;;5.68;1.50;;;17.10;99.90;;;;;;5007892;28;20069;-76
2022/08/28 01:48:36;;;;;;;2.92;1.27;;;17.10;99.90;;;;;;5030775;28;20103;-77
2022/08/28 01:51:03;;;;;;;4.78;1.45;;;17.10;99.90;;;;;;5013795;28;20048;-77
2022/08/28 01:53:30;;;;;;;3.55;1.55;;;17.10;99.90;;;;;;5046905;28;20072;-77
2022/08/28 01:55:57;;;;;;;4.35;1.42;;;17.00;99.90;;;;;;5029654;28;20049;-77
2022/08/28 01:58:24;;;;;;;5.65;1.90;;;17.10;99.90;;;;;;5014251;28;20053;-77
2022/08/28 02:00:51;;;;;;;3.85;1.40;;;17.00;99.90;;;;;;5023232;28;20063;-77
2022/08/28 02:03:18;;;;;;;5.10;1.30;;;17.00;99.90;;;;;;5046081;28;20056;-77
2022/08/28 02:05:44;;;;;;;5.75;1.70;;;17.00;99.90;;;;;;5030509;28;20060;-77
2022/08/28 02:08:11;;;;;;;6.30;1.40;;;17.00;99.90;;;;;;5030188;28;20049;-77
2022/08/28 02:10:39;;;;;;;6.65;1.42;;;17.00;99.90;;;;;;5048000;28;20052;-77
2022/08/28 02:13:06;;;;;;;3.38;1.42;;;17.00;99.90;;;;;;5030101;28;20056;-77
2022/08/28 02:15:34;;;;;;;5.93;1.55;;;16.90;99.90;;;;;;5031144;28;20056;-76
2022/08/28 02:18:00;;;;;;;6.50;1.60;;;16.90;99.90;;;;;;5021092;28;20048;-77
2022/08/28 02:20:27;;;;;;;3.90;1.42;;;16.90;99.90;;;;;;5014567;28;20052;-77
2022/08/28 02:22:54;;;;;;;7.72;1.58;;;16.90;99.90;;;;;;5023837;28;20073;-76
2022/08/28 02:25:21;;;;;;;6.57;1.60;;;16.90;99.90;;;;;;5021998;28;20053;-77
2022/08/28 02:27:47;;;;;;;5.88;1.67;;;16.90;99.90;;;;;;5029109;28;20057;-76
2022/08/28 02:30:16;;;;;;;3.88;1.65;;;16.80;99.90;;;;;;5009132;28;20048;-76
2022/08/28 02:32:42;;;;;;;2.88;1.40;;;16.90;99.90;;;;;;5016424;28;20064;-76
2022/08/28 02:35:10;;;;;;;4.95;1.52;;;16.90;99.90;;;;;;5047350;28;20049;-77
2022/08/28 02:37:37;;;;;;;4.13;1.25;;;16.90;99.90;;;;;;5031365;28;20045;-76
2022/08/28 02:40:03;;;;;;;4.95;1.60;;;16.80;99.90;;;;;;5022219;28;20040;-76
2022/08/28 02:42:29;;;;;;;11.07;1.75;;;16.80;99.90;;;;;;5012530;28;20053;-76
2022/08/28 02:44:54;;;;;;;4.50;1.50;;;16.80;99.90;;;;;;5008726;28;20486;-77
2022/08/28 02:47:20;;;;;;;6.55;1.52;;;16.80;99.90;;;;;;5010000;28;20057;-77
2022/08/28 02:49:46;;;;;;;3.00;1.33;;;16.80;99.90;;;;;;5032577;28;20124;-77
2022/08/28 02:52:12;;;;;;;5.43;1.58;;;16.80;99.90;;;;;;5001277;28;20052;-77
2022/08/28 02:54:39;;;;;;;8.13;1.52;;;16.80;99.90;;;;;;5016830;28;21018;-77
2022/08/28 02:57:08;;;;;;;4.10;1.40;;;16.80;99.90;;;;;;5050782;28;20056;-77
2022/08/28 02:59:35;;;;;;;5.88;1.60;;;16.70;99.90;;;;;;5025647;28;20045;-76
2022/08/28 03:02:03;;;;;;;5.20;1.42;;;16.70;99.90;;;;;;5010416;28;20746;-77
2022/08/28 03:04:33;;;;;;;5.63;1.33;;;16.70;99.90;;;;;;5033387;28;20055;-77
2022/08/28 03:06:58;;;;;;;4.70;1.60;;;16.70;99.90;;;;;;5026705;28;20098;-77
2022/08/28 03:09:25;;;;;;;4.80;1.23;;;16.70;99.90;;;;;;5010253;28;20054;-76
2022/08/28 03:11:54;;;;;;;8.25;1.80;;;16.60;99.90;;;;;;5033853;28;20531;-77
2022/08/28 03:14:24;;;;;;;4.25;1.50;;;16.70;99.90;;;;;;5009626;28;20052;-77
2022/08/28 03:16:50;;;;;;;4.30;1.65;;;16.60;99.90;;;;;;5033556;28;20045;-77
2022/08/28 03:19:16;;;;;;;5.57;1.40;;;16.60;99.90;;;;;;5033165;28;20055;-77
2022/08/28 03:21:42;;;;;;;4.90;1.50;;;16.60;99.90;;;;;;5034251;28;20044;-77
2022/08/28 03:24:08;;;;;;;5.35;1.52;;;16.60;99.90;;;;;;5016863;28;20060;-77
2022/08/28 03:26:33;;;;;;;3.78;1.55;;;16.60;99.90;;;;;;5031318;28;20064;-77
2022/08/28 03:28:59;;;;;;;5.75;1.50;;;16.60;99.90;;;;;;5015997;28;20044;-77
2022/08/28 03:31:28;;;;;;;3.88;1.50;;;16.60;99.90;;;;;;5016751;28;20123;-77
2022/08/28 03:33:54;;;;;;;7.97;1.70;;;16.60;99.90;;;;;;5031253;28;20048;-77
2022/08/28 03:36:24;;;;;;;5.32;1.60;;;16.60;99.90;;;;;;5033497;28;20125;-78
2022/08/28 03:38:53;;;;;;;5.53;1.90;;;16.50;99.90;;;;;;5033562;28;20057;-77
2022/08/28 03:41:22;;;;;;;4.75;1.40;;;16.50;99.90;;;;;;5010046;28;20053;-77
2022/08/28 03:43:48;;;;;;;5.05;2.05;;;16.50;99.90;;;;;;5033954;28;20083;-77
2022/08/28 03:46:23;;;;;;;4.95;1.70;;;16.50;99.90;;;;;;5032865;28;20118;-76
2022/08/28 03:48:49;;;;;;;6.65;1.50;;;16.50;99.90;;;;;;5026090;28;20056;-77
2022/08/28 03:51:27;;;;;;;4.63;1.65;;;16.50;99.90;;;;;;5009741;28;20467;-76
2022/08/28 03:53:53;;;;;;;9.25;1.77;;;16.50;99.90;;;;;;5025211;28;20049;-76
2022/08/28 03:56:25;;;;;;;4.13;1.75;;;16.50;99.90;;;;;;5033613;28;20045;-76
2022/08/28 03:58:54;;;;;;;5.32;1.52;;;16.50;99.90;;;;;;5032724;28;20060;-76
2022/08/28 04:01:20;;;;;;;5.55;1.48;;;16.50;99.90;;;;;;5050227;28;20490;-76
2022/08/28 04:03:46;;;;;;;4.50;1.40;;;16.50;99.90;;;;;;5023908;28;20111;-77
2022/08/28 04:06:13;;;;;;;4.25;1.40;;;16.50;99.90;;;;;;5017900;28;20124;-76
2022/08/28 04:08:38;;;;;;;6.43;1.60;;;16.50;99.90;;;;;;4999295;28;20057;-76
2022/08/28 04:11:05;;;;;;;6.18;1.92;;;16.50;99.90;;;;;;5034163;28;20140;-76
2022/08/28 04:13:31;;;;;;;4.32;1.40;;;16.50;99.90;;;;;;5016397;28;20546;-77
2022/08/28 04:16:09;;;;;;;3.88;1.38;;;16.50;99.90;;;;;;5025689;28;20052;-76
2022/08/28 04:18:36;;;;;;;6.40;1.40;;;16.40;99.90;;;;;;5032155;28;20052;-76
2022/08/28 04:21:06;;;;;;;4.18;1.52;;;16.40;99.90;;;;;;5026198;28;20048;-76
2022/08/28 04:23:33;;;;;;;3.75;1.50;;;16.40;99.90;;;;;;5026714;28;20111;-78
2022/08/28 04:25:59;;;;;;;4.65;1.48;;;16.40;99.90;;;;;;5032516;28;20048;-77
2022/08/28 04:28:25;;;;;;;4.78;1.63;;;16.40;99.90;;;;;;5015939;28;20051;-77
2022/08/28 04:30:56;;;;;;;5.60;1.77;;;16.40;99.90;;;;;;5016413;28;20049;-77
2022/08/28 04:33:24;;;;;;;3.88;1.35;;;16.40;99.90;;;;;;5031027;28;20072;-77
2022/08/28 04:35:49;;;;;;;3.20;1.33;;;16.40;99.90;;;;;;5049764;28;20131;-77
2022/08/28 04:38:15;;;;;;;4.70;1.67;;;16.40;99.90;;;;;;4998872;28;20132;-77
2022/08/28 04:40:42;;;;;;;4.65;1.50;;;16.40;99.90;;;;;;5009412;28;20084;-78
2022/08/28 04:43:08;;;;;;;4.18;1.77;;;16.40;99.90;;;;;;5014195;28;20063;-78
2022/08/28 04:45:42;;;;;;;4.57;1.55;;;16.50;99.90;;;;;;5056307;28;20049;-77
2022/08/28 04:48:09;;;;;;;6.45;1.67;;;16.50;99.90;;;;;;5036627;28;20052;-78
2022/08/28 04:50:42;;;;;;;4.05;1.50;;;16.50;99.90;;;;;;5031819;28;20095;-77
2022/08/28 04:53:09;;;;;;;6.55;2.03;;;16.50;99.90;;;;;;5016713;28;20060;-78
2022/08/28 04:55:43;;;;;;;4.88;1.40;;;16.50;99.90;;;;;;5048421;28;20067;-78
2022/08/28 04:58:09;;;;;;;4.38;1.20;;;16.50;99.90;;;;;;5016090;28;20131;-77
2022/08/28 05:00:41;;;;;;;5.80;1.40;;;16.60;99.90;;;;;;5031456;28;20187;-77
2022/08/28 05:03:06;;;;;;;3.75;1.42;;;16.60;99.90;;;;;;5040564;28;20048;-78
2022/08/28 05:05:33;;;;;;;3.88;1.50;;;16.60;99.90;;;;;;5021635;28;20041;-77
2022/08/28 05:07:58;;;;;;;3.88;1.27;;;16.60;99.90;;;;;;5031645;28;20084;-77
2022/08/28 05:10:25;;;;;;;3.65;1.30;;;16.60;99.90;;;;;;5008032;28;20064;-77
2022/08/28 05:12:50;;;;;;;5.72;1.40;;;16.70;99.90;;;;;;5024116;28;20056;-77
2022/08/28 05:15:16;;;;;;;2.75;1.25;;;16.70;99.90;;;;;;5031358;28;20053;-77
2022/08/28 05:17:42;;;;;;;7.35;1.98;;;16.70;99.90;;;;;;5031406;28;20612;-77
2022/08/28 05:20:08;;;;;;;4.20;1.50;;;16.80;99.90;;;;;;5048441;28;20060;-77
2022/08/28 05:22:34;;;;;;;3.20;1.35;;;16.80;99.90;;;;;;4992952;28;20052;-77
2022/08/28 05:25:00;;;;;;;4.00;1.58;;;16.80;99.90;;;;;;5030508;28;20849;-77
2022/08/28 05:27:27;;;;;;;2.80;1.50;;;16.80;99.90;;;;;;5015075;28;20134;-77
2022/08/28 05:29:52;;;;;;;5.57;1.30;;;16.80;99.90;;;;;;5007075;28;20049;-77
2022/08/28 05:32:19;;;;;;;5.07;1.40;;;16.80;99.90;;;;;;5018500;28;20052;-76
2022/08/28 05:34:45;;;;;;;4.82;1.35;;;16.90;99.90;;;;;;5033415;28;20079;-77
2022/08/28 05:37:11;;;;;;;4.55;1.45;;;16.90;99.90;;;;;;5027539;28;20595;-77
2022/08/28 05:39:38;;;;;;;5.55;1.25;;;16.90;99.90;;;;;;5015035;28;20049;-77
2022/08/28 05:42:04;;;;;;;5.13;1.67;;;16.90;99.90;;;;;;5032375;28;20075;-78
2022/08/28 05:44:30;;;;;;;6.95;1.58;;;16.90;99.90;;;;;;5014858;28;20044;-77
2022/08/28 05:46:56;;;;;;;6.97;1.70;;;16.90;99.90;;;;;;5016025;28;20049;-77
2022/08/28 05:49:22;;;;;;;5.40;1.50;;;16.90;99.90;;;;;;5030579;28;20059;-78
2022/08/28 05:51:48;;;;;;;4.20;1.65;;;16.90;99.90;;;;;;5031053;28;20119;-78
2022/08/28 05:54:14;;;;;;;3.38;1.33;;;16.90;99.90;;;;;;5007166;28;20055;-77
2022/08/28 05:56:42;;;;;;;4.93;1.58;;;16.90;99.90;;;;;;5029880;28;20068;-77
2022/08/28 05:59:09;;;;;;;6.40;1.70;;;16.90;99.90;;;;;;5030698;28;20053;-77
2022/08/28 06:01:44;;;;;;;6.53;1.55;;;16.90;99.90;;;;;;5030418;28;20107;-78
2022/08/28 06:04:13;;;;;;;6.57;1.67;;;17.00;99.90;;;;;;5008340;28;20045;-77
2022/08/28 06:06:40;;;;;;;3.67;1.30;;;17.00;99.90;;;;;;5022505;28;20049;-78
2022/08/28 06:09:19;;;;;;;3.80;1.25;;;16.90;99.90;;;;;;5012500;28;20499;-77
2022/08/28 06:11:46;;;;;;;4.13;1.55;;;17.00;99.90;;;;;;5045875;28;20047;-78
2022/08/28 06:14:13;;;;;;;4.05;1.35;;;17.00;99.90;;;;;;5027454;28;20056;-78
2022/08/28 06:16:42;;;;;;;5.53;1.50;;;17.10;99.90;;;;;;5024461;28;20052;-78
2022/08/28 06:19:10;;;;;;;4.93;1.50;;;17.00;99.90;;;;;;5025905;28;20044;-77
2022/08/28 06:21:37;;;;;;;3.97;1.85;;;17.00;99.90;;;;;;5042876;28;20067;-77
2022/08/28 06:24:04;;;;;;;4.38;1.48;;;17.00;99.90;;;;;;5024916;28;20129;-77
2022/08/28 06:26:29;;;;;;;6.30;1.40;;;17.00;99.90;;;;;;5012208;28;20037;-77
2022/08/28 06:29:07;;;;;;;4.57;1.52;;;17.00;99.90;;;;;;5029698;28;20398;-77
2022/08/28 06:31:33;;;;;;;4.47;1.50;;;17.00;99.90;;;;;;5023777;28;20045;-77
2022/08/28 06:34:00;;;;;;;3.08;1.30;;;17.00;99.90;;;;;;5013999;28;20048;-78
2022/08/28 06:36:28;;;;;;;3.60;1.55;;;17.10;99.90;;;;;;4992227;28;20697;-78
2022/08/28 06:38:57;;;;;;;5.57;1.40;;;17.20;99.90;;;;;;5020321;28;20041;-76
2022/08/28 06:41:23;;;;;;;4.78;1.50;;;17.20;99.90;;;;;;5023242;28;20097;-76
2022/08/28 06:43:49;;;;;;;5.78;1.42;;;17.30;99.90;;;;;;5008882;28;20147;-76
2022/08/28 06:46:16;;;;;;;6.22;2.28;;;17.40;99.90;;;;;;5040645;28;20543;-76
2022/08/28 06:48:42;;;;;;;6.75;1.30;;;17.50;99.90;;;;;;5025615;28;20060;-76
2022/08/28 06:51:09;;;;;;;5.78;1.52;;;17.50;99.90;;;;;;5010234;28;20414;-76
2022/08/28 06:53:37;;;;;;;4.40;1.63;;;17.60;99.90;;;;;;5025676;28;20382;-76
2022/08/28 06:56:12;;;;;;;4.90;1.40;;;17.70;99.90;;;;;;5041241;28;20049;-78
2022/08/28 06:58:41;;;;;;;5.40;1.40;;;17.80;99.90;;;;;;5008139;28;20057;-78
2022/08/28 07:01:11;;;;;;;4.03;1.35;;;17.90;99.90;;;;;;5020251;28;20391;-78
2022/08/28 07:03:38;;;;;;;7.63;1.58;;;18.10;99.90;;;;;;5021502;28;20045;-78
2022/08/28 07:06:06;;;;;;;4.97;1.67;;;18.20;99.90;;;;;;5025092;28;20120;-78
2022/08/28 07:08:33;;;;;;;5.47;1.65;;;18.40;99.90;;;;;;5021451;28;21186;-79
2022/08/28 07:11:08;;;;;;;3.92;1.45;;;18.50;99.90;;;;;;5023765;28;20498;-78
2022/08/28 07:13:33;;;;;;;5.15;1.70;;;18.70;99.90;;;;;;5033145;28;20053;-78
2022/08/28 07:15:59;;;;;;;4.55;1.13;;;18.80;99.90;;;;;;5007645;28;20045;-76
2022/08/28 07:18:25;;;;;;;2.67;1.10;;;18.90;99.90;;;;;;5008727;28;20029;-78
2022/08/28 07:20:56;;;;;;;3.63;1.23;;;19.00;99.90;;;;;;5002749;28;20056;-78
2022/08/28 07:23:22;;;;;;;3.30;1.20;;;19.20;99.90;;;;;;5040593;28;20053;-77
2022/08/28 07:25:47;;;;;;;4.78;1.30;;;19.30;99.90;;;;;;5007638;28;20064;-77
2022/08/28 07:28:14;;;;;;;6.07;1.48;;;19.50;99.90;;;;;;5008041;28;21004;-77
2022/08/28 07:30:39;;;;;;;3.05;1.10;;;19.60;99.90;;;;;;5009952;28;20106;-77
2022/08/28 07:33:05;;;;;;;3.45;1.35;;;19.70;99.90;;;;;;5027937;28;20053;-77
2022/08/28 07:35:31;;;;;;;3.80;1.52;;;19.80;99.90;;;;;;4980621;28;20052;-77
2022/08/28 07:37:57;;;;;;;3.42;1.20;;;20.00;99.90;;;;;;5012156;28;20391;-77
2022/08/28 07:40:23;;;;;;;3.60;1.30;;;19.90;99.90;;;;;;5028001;28;20091;-77
2022/08/28 07:45:34;;;;;;;2.88;1.13;;;20.10;99.90;;;;;;5046558;28;20414;-76
2022/08/28 07:48:03;;;;;;;2.65;1.05;;;20.10;99.90;;;;;;5000866;28;20076;-77
2022/08/28 07:50:29;;;;;;;5.65;1.60;;;20.20;99.90;;;;;;5029080;28;20052;-76
2022/08/28 07:52:54;;;;;;;3.55;1.45;;;20.30;99.90;;;;;;5027159;28;20049;-77
2022/08/28 07:55:20;;;;;;;4.45;1.25;;;20.50;99.90;;;;;;5029453;28;20114;-77
2022/08/28 07:57:47;;;;;;;5.70;1.20;;;20.60;99.90;;;;;;5026978;28;20048;-77
2022/08/28 08:00:13;;;;;;;6.18;1.45;;;20.60;99.90;;;;;;5012353;28;20057;-76
2022/08/28 08:02:38;;;;;;;4.50;1.27;;;20.50;99.90;;;;;;5016227;28;20155;-76
2022/08/28 08:05:05;;;;;;;5.15;1.63;;;20.50;99.90;;;;;;5016095;28;20179;-76
2022/08/28 08:07:32;;;;;;;3.42;1.27;;;20.40;99.90;;;;;;5012016;28;20045;-78
2022/08/28 08:09:57;;;;;;;1.80;0.80;;;20.30;99.90;;;;;;5044005;28;20052;-76
2022/08/28 08:12:23;;;;;;;3.35;1.20;;;20.20;99.90;;;;;;4995075;28;20129;-76
2022/08/28 08:14:49;;;;;;;3.50;1.50;;;20.20;99.90;;;;;;5023239;28;20048;-76
2022/08/28 08:17:14;;;;;;;3.72;1.40;;;20.00;99.90;;;;;;5010767;28;20048;-77
2022/08/28 08:19:40;;;;;;;6.43;1.40;;;19.90;99.90;;;;;;5011821;28;20053;-76
2022/08/28 08:22:06;;;;;;;3.38;1.35;;;19.80;99.90;;;;;;5012485;28;20037;-76
2022/08/28 08:24:32;;;;;;;2.65;1.20;;;19.70;99.90;;;;;;5011028;28;20130;-76
2022/08/28 08:27:00;;;;;;;4.78;1.30;;;19.60;99.90;;;;;;5009786;28;20061;-77
2022/08/28 08:29:30;;;;;;;5.43;1.40;;;19.60;99.90;;;;;;5012596;28;20083;-78
2022/08/28 08:32:01;;;;;;;3.00;1.20;;;19.60;99.90;;;;;;5027302;28;20072;-78
2022/08/28 08:34:27;;;;;;;4.10;1.50;;;19.60;99.90;;;;;;5027106;28;20041;-77
2022/08/28 08:36:53;;;;;;;6.10;1.55;;;19.60;99.90;;;;;;5006509;28;20045;-78
2022/08/28 08:39:18;;;;;;;3.38;1.13;;;19.50;99.90;;;;;;5028040;28;20057;-77
2022/08/28 08:42:08;;;;;;;3.40;1.02;;;19.50;99.90;;;;;;5006035;28;20059;-77
2022/08/28 08:44:42;;;;;;;3.22;1.23;;;19.50;99.90;;;;;;5029242;28;20063;-77
2022/08/28 08:47:25;;;;;;;3.40;1.30;;;19.80;99.90;;;;;;5026126;28;20128;-76
2022/08/28 08:49:54;;;;;;;2.60;1.10;;;20.30;99.90;;;;;;5042569;28;20053;-77
2022/08/28 08:52:35;;;;;;;5.50;1.48;;;20.80;99.90;;;;;;5021217;28;20055;-77
2022/08/28 08:55:16;;;;;;;5.75;1.45;;;21.30;99.90;;;;;;5005472;28;20045;-79
2022/08/28 08:57:44;;;;;;;4.75;1.40;;;21.70;99.90;;;;;;5005496;28;20056;-79
2022/08/28 09:00:11;;;;;;;3.92;1.50;;;22.10;99.90;;;;;;5044877;28;20060;-79
2022/08/28 09:02:46;;;;;;;2.90;1.20;;;22.50;99.90;;;;;;5006560;28;20077;-78
2022/08/28 09:05:17;;;;;;;3.75;1.25;;;22.90;99.90;;;;;;5025675;28;20548;-79
2022/08/28 09:08:00;;;;;;;4.78;1.15;;;23.30;99.90;;;;;;5012834;28;20144;-78
2022/08/28 09:10:37;;;;;;;2.53;1.10;;;23.30;99.90;;;;;;5007082;28;20506;-79
2022/08/28 09:13:19;;;;;;;6.50;1.52;;;23.00;99.90;;;;;;5014967;28;20562;-78
2022/08/28 09:15:45;;;;;;;4.60;1.30;;;22.90;99.60;;;;;;5007174;28;20041;-79
2022/08/28 09:18:27;;;;;;;2.70;1.00;;;23.10;99.90;;;;;;5025868;28;20064;-79
2022/08/28 09:20:56;;;;;;;2.22;0.98;;;23.30;99.10;;;;;;5034310;28;20128;-78
2022/08/28 09:23:24;;;;;;;2.80;0.95;;;23.30;99.90;;;;;;5032424;28;20131;-78
2022/08/28 09:26:01;;;;;;;1.80;0.90;;;23.40;99.90;;;;;;5047451;28;20052;-78
2022/08/28 09:28:37;;;;;;;3.92;1.30;;;23.70;99.40;;;;;;5048669;28;20560;-78
2022/08/28 09:31:18;;;;;;;3.35;1.10;;;23.80;99.10;;;;;;5010927;28;20045;-78
2022/08/28 09:33:50;;;;;;;4.00;1.30;;;23.90;97.90;;;;;;5033702;28;20053;-79
2022/08/28 09:36:33;;;;;;;3.45;1.10;;;23.90;98.10;;;;;;5019658;28;20134;-78
2022/08/28 09:39:23;;;;;;;6.00;1.40;;;24.20;96.60;;;;;;5008692;28;20055;-78
2022/08/28 09:44:50;;;;;;;5.20;1.40;;;24.80;97.00;;;;;;5045150;28;20387;-79
2022/08/28 09:47:43;;;;;;;3.20;1.08;;;25.10;96.10;;;;;;5041557;28;20049;-78
2022/08/28 09:50:26;;;;;;;4.85;1.23;;;25.50;94.00;;;;;;5010040;28;20044;-78
2022/08/28 09:52:55;;;;;;;4.15;1.20;;;25.70;94.90;;;;;;5010805;28;20053;-78
2022/08/28 09:55:34;;;;;;;3.20;1.08;;;25.40;94.90;;;;;;5028351;28;20037;-77
2022/08/28 09:58:01;;;;;;;3.35;0.95;;;25.40;94.30;;;;;;5030104;28;20155;-76
2022/08/28 10:00:32;;;;;;;4.35;1.23;;;25.50;94.50;;;;;;5028953;28;20044;-78
2022/08/28 10:03:04;;;;;;;3.17;1.10;;;25.50;93.90;;;;;;5030509;28;20098;-80
2022/08/28 10:05:57;;;;;;;2.10;1.10;;;25.60;93.90;;;;;;5029840;28;20045;-79
2022/08/28 10:08:54;;;;;;;2.22;1.00;;;25.90;93.30;;;;;;5030755;28;20052;-79
2022/08/28 10:11:30;;;;;;;2.75;1.05;;;26.10;93.00;;;;;;5030816;28;20057;-79
2022/08/28 10:14:13;;;;;;;3.40;1.13;;;26.50;92.90;;;;;;5011682;28;20052;-78
2022/08/28 10:16:52;;;;;;;3.83;1.10;;;26.60;91.40;;;;;;5021895;28;20478;-78
2022/08/28 10:19:23;;;;;;;2.38;1.15;;;26.80;91.90;;;;;;5029701;28;20040;-78
2022/08/28 10:21:59;;;;;;;4.45;1.08;;;26.90;91.60;;;;;;5028878;28;20049;-79
2022/08/28 10:24:44;;;;;;;2.50;1.00;;;27.00;91.30;;;;;;5029717;28;20061;-78
2022/08/28 10:27:27;;;;;;;3.22;1.17;;;27.20;91.40;;;;;;5008416;28;20063;-77
2022/08/28 10:30:09;;;;;;;2.45;1.00;;;27.50;91.00;;;;;;5031449;28;20135;-78
2022/08/28 10:33:12;;;;;;;5.35;1.20;;;27.40;88.10;;;;;;5009279;28;20532;-77
2022/08/28 10:36:05;;;;;;;2.53;0.77;;;27.30;87.60;;;;;;5043153;28;20135;-77
2022/08/28 10:38:43;;;;;;;2.85;1.00;;;27.10;87.20;;;;;;5009933;28;20122;-78
2022/08/28 10:41:27;;;;;;;3.55;0.90;;;26.80;88.00;;;;;;5026279;28;20044;-78
2022/08/28 10:43:56;;;;;;;3.13;1.00;;;26.90;87.70;;;;;;5027390;28;20564;-78
2022/08/28 10:46:57;;;;;;;2.83;1.05;;;27.20;89.10;;;;;;5042180;28;20044;-77
2022/08/28 10:49:45;;;;;;;2.95;1.10;;;27.60;87.20;;;;;;4934805;28;20095;-77
2022/08/28 10:52:29;;;;;;;2.83;1.08;;;27.80;84.80;;;;;;5001642;28;20635;-79
2022/08/28 10:55:13;;;;;;;3.30;1.00;;;27.90;84.20;;;;;;5020730;28;20045;-78
2022/08/28 10:58:03;;;;;;;3.35;1.10;;;27.90;84.90;;;;;;5042931;28;20053;-78
2022/08/28 11:00:30;;;;;;;2.38;1.10;;;27.90;83.60;;;;;;5025498;28;20049;-78
2022/08/28 11:03:07;;;;;;;2.60;1.20;;;28.00;85.70;;;;;;5024578;28;20045;-78
2022/08/28 11:06:22;;;;;;;3.10;1.20;;;28.20;84.40;;;;;;5026153;28;20494;-79
2022/08/28 11:08:56;;;;;;;4.43;1.60;;;28.30;82.20;;;;;;4981257;28;20061;-79
2022/08/28 11:11:43;;;;;;;4.50;1.90;;;28.40;82.20;;;;;;5032479;28;20394;-79
2022/08/28 11:14:23;;;;;;;4.88;1.27;;;28.40;78.80;;;;;;5026759;28;20080;-79
2022/08/28 11:16:51;;;;;;;2.63;1.17;;;28.30;80.30;;;;;;5033329;28;20055;-79
2022/08/28 11:20:01;;;;;;;3.40;1.50;;;28.30;80.10;;;;;;5006321;28;20049;-80
2022/08/28 11:22:42;;;;;;;4.05;1.63;;;28.30;79.00;;;;;;4948307;28;20045;-78
2022/08/28 11:25:23;;;;;;;2.53;1.10;;;28.50;78.60;;;;;;5009487;28;20057;-78
2022/08/28 11:28:23;;;;;;;2.28;1.02;;;28.60;77.20;;;;;;5006632;28;20467;-80
2022/08/28 11:31:04;;;;;;;3.83;1.27;;;28.70;76.20;;;;;;5026305;28;20049;-79
2022/08/28 11:33:51;;;;;;;2.95;1.67;;;28.90;78.30;;;;;;5028441;28;20130;-78
2022/08/28 11:36:20;;;;;;;3.47;1.50;;;29.10;77.50;;;;;;5023113;28;20076;-79
2022/08/28 11:38:55;;;;;;;3.78;1.52;;;28.80;77.90;;;;;;5012363;28;20053;-81
2022/08/28 11:41:30;;;;;;;3.70;1.40;;;28.70;77.20;;;;;;5007530;28;20049;-78
2022/08/28 11:44:09;;;;;;;2.72;1.20;;;28.60;77.50;;;;;;5031812;28;20053;-77
2022/08/28 11:46:38;;;;;;;3.65;1.30;;;28.40;76.60;;;;;;5030071;28;20056;-76
2022/08/28 11:49:25;;;;;;;2.08;1.00;;;28.50;77.40;;;;;;5029469;28;20092;-77
2022/08/28 11:52:01;;;;;;;3.00;1.33;;;28.60;77.50;;;;;;5016375;28;20057;-76
2022/08/28 11:54:42;;;;;;;3.22;0.98;;;28.80;77.40;;;;;;5030036;28;20099;-77
2022/08/28 11:57:27;;;;;;;3.70;1.30;;;28.70;76.20;;;;;;5005892;28;20329;-77
2022/08/28 12:00:37;;;;;;;2.33;1.15;;;28.30;77.10;;;;;;5030123;28;20056;-77
2022/08/28 12:03:05;;;;;;;3.13;1.00;;;28.80;75.20;;;;;;4997681;28;20053;-76
2022/08/28 12:05:31;;;;;;;2.95;0.98;;;28.80;76.60;;;;;;5006606;28;20046;-76
2022/08/28 12:08:03;;;;;;;3.35;1.20;;;28.70;76.20;;;;;;5005561;28;20510;-77
2022/08/28 12:10:32;;;;;;;5.30;1.20;;;28.70;76.30;;;;;;5023087;28;20042;-77
2022/08/28 12:13:03;;;;;;;3.15;1.20;;;28.80;75.80;;;;;;5029441;28;20080;-77
2022/08/28 12:15:29;;;;;;;3.85;1.10;;;28.90;75.20;;;;;;5028732;28;20057;-76
2022/08/28 12:18:41;;;;;;;3.13;1.10;;;28.80;75.10;;;;;;5003331;28;20049;-77
2022/08/28 12:21:24;;;;;;;4.88;1.27;;;29.10;73.80;;;;;;5016444;28;20073;-76
2022/08/28 12:24:01;;;;;;;2.53;1.10;;;29.30;72.30;;;;;;5038234;28;20494;-76
2022/08/28 12:26:43;;;;;;;2.67;1.02;;;29.40;72.60;;;;;;5032273;28;20067;-77
2022/08/28 12:29:37;;;;;;;2.72;1.02;;;29.30;72.20;;;;;;5030971;28;20048;-77
2022/08/28 12:32:35;;;;;;;2.63;1.10;;;29.40;72.20;;;;;;5042172;28;20137;-77
2022/08/28 12:35:01;;;;;;;3.00;1.00;;;29.20;72.90;;;;;;5042007;28;20053;-77
2022/08/28 12:37:32;;;;;;;3.80;1.08;;;29.50;73.80;;;;;;5024556;28;20423;-76
2022/08/28 12:40:14;;;;;;;3.13;0.95;;;29.60;72.70;;;;;;5031110;28;20124;-77
2022/08/28 12:42:57;;;;;;;4.80;1.20;;;29.90;72.20;;;;;;5016090;28;20052;-76
2022/08/28 12:45:28;;;;;;;2.80;1.00;;;30.00;72.20;;;;;;5032523;28;20063;-78
2022/08/28 12:47:59;;;;;;;3.08;1.10;;;30.20;71.60;;;;;;5032044;28;20044;-77
2022/08/28 12:50:37;;;;;;;3.40;1.15;;;30.30;70.90;;;;;;5032423;28;20127;-77
2022/08/28 12:53:10;;;;;;;2.85;1.25;;;30.00;71.00;;;;;;5015772;28;20132;-78
2022/08/28 12:55:37;;;;;;;2.47;1.13;;;29.80;71.30;;;;;;5013896;28;20124;-77
2022/08/28 12:58:30;;;;;;;3.33;1.00;;;29.80;71.10;;;;;;5007499;28;20164;-77
2022/08/28 13:01:00;;;;;;;3.53;1.55;;;29.60;69.40;;;;;;5008404;28;20391;-77
2022/08/28 13:03:27;;;;;;;2.53;1.02;;;29.90;71.30;;;;;;5031738;28;20071;-77
2022/08/28 13:06:02;;;;;;;2.35;0.90;;;30.00;70.90;;;;;;5016111;28;20045;-77
2022/08/28 13:08:28;;;;;;;3.45;1.10;;;30.20;70.00;;;;;;5031429;28;20123;-77
2022/08/28 13:10:54;;;;;;;3.70;1.00;;;30.20;69.60;;;;;;5032111;28;20049;-77
2022/08/28 13:13:42;;;;;;;2.95;1.15;;;30.30;69.40;;;;;;5030955;28;20059;-76
2022/08/28 13:16:10;;;;;;;2.05;1.00;;;30.20;69.10;;;;;;5021989;28;20061;-76
2022/08/28 13:19:10;;;;;;;4.53;1.10;;;30.30;69.30;;;;;;5024494;28;20049;-77